FDX944 KMEM-CYYZ
Flight info
| Callsign | FDX944 |
|---|---|
| Flight time | N/A |
| Altitude | 35000 |
| Route | CRSON7 HUMMS DCT PXV DCT MAYZE DCT QWERI NUBER6 |
| Aircraft | B77L/H-SDE1E2E3FGHIJ2J3J4J5M1RWXY/LB1D1 |
Departure
| Time | 2026-05-07 01:21 |
|---|---|
| Airport | Memphis International Airport (KMEM) |
Arrival
| Time | N/A |
|---|---|
| Airport | Toronto Pearson International Airport (CYYZ) |
| Time | Latitude | Longitude | Altitude | Speed | Heading |
|---|---|---|---|---|---|
| 2026-05-07 00:56 | 35.06417 | -89.97892 | 330 ft | 0 kts | 1° |
| 2026-05-07 01:05 | 35.06416 | -89.97892 | 335 ft | 1 kts | 1° |
| 2026-05-07 01:06 | 35.06402 | -89.97893 | 330 ft | 3 kts | 1° |
| 2026-05-07 01:06 | 35.06382 | -89.97894 | 330 ft | 3 kts | 1° |
| 2026-05-07 01:06 | 35.06363 | -89.97894 | 330 ft | 3 kts | 23° |
| 2026-05-07 01:06 | 35.06353 | -89.97905 | 331 ft | 3 kts | 83° |
| 2026-05-07 01:07 | 35.06352 | -89.97919 | 330 ft | 2 kts | 92° |
| 2026-05-07 01:07 | 35.06353 | -89.97941 | 330 ft | 2 kts | 92° |
| 2026-05-07 01:07 | 35.06353 | -89.97949 | 330 ft | 0 kts | 92° |
| 2026-05-07 01:10 | 35.06353 | -89.97948 | 330 ft | 2 kts | 92° |
| 2026-05-07 01:11 | 35.06351 | -89.97882 | 330 ft | 10 kts | 92° |
| 2026-05-07 01:11 | 35.06332 | -89.97800 | 330 ft | 10 kts | 137° |
| 2026-05-07 01:11 | 35.06261 | -89.97786 | 332 ft | 11 kts | 179° |
| 2026-05-07 01:11 | 35.06191 | -89.97786 | 333 ft | 7 kts | 181° |
| 2026-05-07 01:12 | 35.06151 | -89.97787 | 332 ft | 5 kts | 180° |
| 2026-05-07 01:12 | 35.06123 | -89.97787 | 333 ft | 0 kts | 180° |
| 2026-05-07 01:12 | 35.06112 | -89.97787 | 333 ft | 4 kts | 180° |
| 2026-05-07 01:12 | 35.06075 | -89.97787 | 332 ft | 10 kts | 179° |
| 2026-05-07 01:13 | 35.05956 | -89.97785 | 333 ft | 22 kts | 179° |
| 2026-05-07 01:13 | 35.05804 | -89.97783 | 335 ft | 22 kts | 179° |
| 2026-05-07 01:13 | 35.05653 | -89.97782 | 332 ft | 22 kts | 180° |
| 2026-05-07 01:13 | 35.05502 | -89.97782 | 331 ft | 22 kts | 180° |
| 2026-05-07 01:14 | 35.05351 | -89.97774 | 330 ft | 22 kts | 173° |
| 2026-05-07 01:14 | 35.05202 | -89.97762 | 330 ft | 22 kts | 178° |
| 2026-05-07 01:14 | 35.05051 | -89.97761 | 329 ft | 22 kts | 180° |
| 2026-05-07 01:14 | 35.04899 | -89.97757 | 328 ft | 22 kts | 176° |
| 2026-05-07 01:15 | 35.04748 | -89.97753 | 332 ft | 22 kts | 179° |
| 2026-05-07 01:15 | 35.04599 | -89.97750 | 328 ft | 22 kts | 179° |
| 2026-05-07 01:15 | 35.04447 | -89.97746 | 331 ft | 22 kts | 179° |
| 2026-05-07 01:15 | 35.04296 | -89.97742 | 331 ft | 22 kts | 179° |
| 2026-05-07 01:16 | 35.04145 | -89.97740 | 330 ft | 22 kts | 179° |
| 2026-05-07 01:16 | 35.03996 | -89.97737 | 331 ft | 22 kts | 179° |
| 2026-05-07 01:16 | 35.03845 | -89.97734 | 330 ft | 22 kts | 179° |
| 2026-05-07 01:16 | 35.03694 | -89.97732 | 330 ft | 22 kts | 179° |
| 2026-05-07 01:17 | 35.03542 | -89.97728 | 327 ft | 22 kts | 179° |
| 2026-05-07 01:17 | 35.03393 | -89.97725 | 328 ft | 22 kts | 179° |
| 2026-05-07 01:17 | 35.03248 | -89.97722 | 329 ft | 18 kts | 179° |
| 2026-05-07 01:17 | 35.03169 | -89.97743 | 328 ft | 10 kts | 227° |
| 2026-05-07 01:18 | 35.03124 | -89.97810 | 330 ft | 10 kts | 205° |
| 2026-05-07 01:18 | 35.03050 | -89.97817 | 332 ft | 12 kts | 179° |
| 2026-05-07 01:18 | 35.02925 | -89.97815 | 332 ft | 20 kts | 179° |
| 2026-05-07 01:18 | 35.02784 | -89.97811 | 332 ft | 20 kts | 179° |
| 2026-05-07 01:19 | 35.02641 | -89.97809 | 333 ft | 19 kts | 179° |
| 2026-05-07 01:19 | 35.02532 | -89.97808 | 332 ft | 14 kts | 179° |
| 2026-05-07 01:19 | 35.02440 | -89.97796 | 332 ft | 12 kts | 150° |
| 2026-05-07 01:19 | 35.02416 | -89.97715 | 331 ft | 10 kts | 93° |
| 2026-05-07 01:20 | 35.02418 | -89.97602 | 328 ft | 17 kts | 76° |
| 2026-05-07 01:20 | 35.02520 | -89.97557 | 328 ft | 19 kts | 359° |
| 2026-05-07 01:20 | 35.02781 | -89.97561 | 328 ft | 68 kts | 359° |
| 2026-05-07 01:20 | 35.03526 | -89.97577 | 324 ft | 143 kts | 359° |
| 2026-05-07 01:21 | 35.04674 | -89.97612 | 625 ft | 173 kts | 0° |
| 2026-05-07 01:21 | 35.05839 | -89.97657 | 1511 ft | 164 kts | 1° |
| 2026-05-07 01:21 | 35.06971 | -89.97595 | 2174 ft | 169 kts | 12° |
| 2026-05-07 01:21 | 35.08207 | -89.97308 | 2464 ft | 193 kts | 13° |
| 2026-05-07 01:22 | 35.09120 | -89.97085 | 2615 ft | 211 kts | 13° |
| 2026-05-07 01:22 | 35.10665 | -89.96716 | 2906 ft | 236 kts | 12° |
| 2026-05-07 01:22 | 35.12896 | -89.96202 | 3729 ft | 252 kts | 10° |
| 2026-05-07 01:22 | 35.14651 | -89.95780 | 4403 ft | 260 kts | 15° |
| 2026-05-07 01:23 | 35.15764 | -89.95167 | 4740 ft | 270 kts | 28° |
| 2026-05-07 01:23 | 35.17351 | -89.93824 | 5348 ft | 282 kts | 34° |
| 2026-05-07 01:23 | 35.18937 | -89.92329 | 6036 ft | 291 kts | 34° |
| 2026-05-07 01:23 | 35.20549 | -89.90804 | 6692 ft | 300 kts | 33° |
| 2026-05-07 01:24 | 35.22220 | -89.89244 | 7417 ft | 304 kts | 33° |
| 2026-05-07 01:24 | 35.23919 | -89.87681 | 8163 ft | 308 kts | 32° |
| 2026-05-07 01:24 | 35.25654 | -89.86105 | 8921 ft | 312 kts | 31° |
| 2026-05-07 01:24 | 35.27421 | -89.84514 | 9671 ft | 318 kts | 31° |
| 2026-05-07 01:25 | 35.29207 | -89.82917 | 10390 ft | 323 kts | 30° |
| 2026-05-07 01:25 | 35.31049 | -89.81275 | 11070 ft | 330 kts | 30° |
| 2026-05-07 01:25 | 35.32931 | -89.79601 | 11743 ft | 338 kts | 30° |
| 2026-05-07 01:25 | 35.34889 | -89.77867 | 12161 ft | 359 kts | 30° |
| 2026-05-07 01:26 | 35.36997 | -89.76006 | 12365 ft | 387 kts | 30° |
| 2026-05-07 01:26 | 35.39263 | -89.74000 | 12606 ft | 412 kts | 31° |
| 2026-05-07 01:26 | 35.41598 | -89.71920 | 13194 ft | 426 kts | 31° |
| 2026-05-07 01:26 | 35.44036 | -89.69741 | 13890 ft | 436 kts | 30° |
| 2026-05-07 01:27 | 35.46511 | -89.67526 | 14603 ft | 443 kts | 30° |
| 2026-05-07 01:27 | 35.49018 | -89.65282 | 15349 ft | 450 kts | 30° |
| 2026-05-07 01:27 | 35.51576 | -89.62995 | 16164 ft | 454 kts | 30° |
| 2026-05-07 01:27 | 35.54121 | -89.60717 | 16969 ft | 459 kts | 30° |
| 2026-05-07 01:28 | 35.56728 | -89.58386 | 17688 ft | 465 kts | 30° |
| 2026-05-07 01:28 | 35.59367 | -89.56028 | 18375 ft | 472 kts | 30° |
| 2026-05-07 01:28 | 35.62073 | -89.53683 | 18965 ft | 476 kts | 26° |
| 2026-05-07 01:28 | 35.64868 | -89.51564 | 19601 ft | 478 kts | 24° |
| 2026-05-07 01:29 | 35.67737 | -89.49453 | 20239 ft | 483 kts | 23° |
| 2026-05-07 01:29 | 35.70637 | -89.47316 | 20864 ft | 488 kts | 24° |
| 2026-05-07 01:29 | 35.73574 | -89.45141 | 21485 ft | 493 kts | 24° |
| 2026-05-07 01:29 | 35.76519 | -89.42951 | 22250 ft | 494 kts | 25° |
| 2026-05-07 01:30 | 35.79457 | -89.40756 | 22664 ft | 504 kts | 23° |
| 2026-05-07 01:30 | 35.82491 | -89.38491 | 23073 ft | 513 kts | 23° |
| 2026-05-07 01:30 | 35.85548 | -89.36202 | 23688 ft | 517 kts | 23° |
| 2026-05-07 01:30 | 35.88645 | -89.33877 | 24228 ft | 520 kts | 23° |
| 2026-05-07 01:31 | 35.91752 | -89.31543 | 24700 ft | 525 kts | 23° |
| 2026-05-07 01:31 | 35.94901 | -89.29177 | 25174 ft | 531 kts | 23° |
| 2026-05-07 01:31 | 35.98037 | -89.26820 | 25621 ft | 536 kts | 23° |
| 2026-05-07 01:31 | 36.01248 | -89.24405 | 26065 ft | 541 kts | 23° |
| 2026-05-07 01:32 | 36.04484 | -89.21970 | 26524 ft | 546 kts | 24° |
| 2026-05-07 01:32 | 36.07745 | -89.19511 | 27020 ft | 549 kts | 24° |
| 2026-05-07 01:32 | 36.11026 | -89.17033 | 27469 ft | 554 kts | 24° |
| 2026-05-07 01:32 | 36.14295 | -89.14564 | 27889 ft | 559 kts | 24° |
| 2026-05-07 01:33 | 36.17637 | -89.12037 | 28300 ft | 565 kts | 24° |
| 2026-05-07 01:33 | 36.21021 | -89.09476 | 28715 ft | 569 kts | 24° |
| 2026-05-07 01:33 | 36.24380 | -89.06930 | 29150 ft | 574 kts | 24° |
| 2026-05-07 01:33 | 36.27800 | -89.04334 | 29597 ft | 578 kts | 23° |
| 2026-05-07 01:34 | 36.31245 | -89.01716 | 29997 ft | 582 kts | 23° |
| 2026-05-07 01:34 | 36.34710 | -88.99083 | 30336 ft | 585 kts | 23° |
| 2026-05-07 01:34 | 36.38208 | -88.96425 | 30667 ft | 588 kts | 22° |
| 2026-05-07 01:34 | 36.41657 | -88.93807 | 30994 ft | 590 kts | 22° |
| 2026-05-07 01:35 | 36.45172 | -88.91138 | 31347 ft | 591 kts | 22° |
| 2026-05-07 01:35 | 36.48682 | -88.88467 | 31813 ft | 590 kts | 22° |
| 2026-05-07 01:35 | 36.52174 | -88.85804 | 32337 ft | 588 kts | 22° |
| 2026-05-07 01:35 | 36.55661 | -88.83142 | 32785 ft | 587 kts | 22° |
| 2026-05-07 01:36 | 36.59157 | -88.80472 | 33183 ft | 587 kts | 22° |
| 2026-05-07 01:36 | 36.62608 | -88.77835 | 33559 ft | 588 kts | 22° |
| 2026-05-07 01:36 | 36.66102 | -88.75163 | 33942 ft | 587 kts | 22° |
| 2026-05-07 01:36 | 36.69587 | -88.72494 | 34294 ft | 587 kts | 22° |
| 2026-05-07 01:37 | 36.73074 | -88.69819 | 34653 ft | 586 kts | 22° |
| 2026-05-07 01:37 | 36.76556 | -88.67146 | 34950 ft | 588 kts | 21° |
| 2026-05-07 01:37 | 36.80015 | -88.64495 | 35009 ft | 593 kts | 21° |